createdAt,value
2019-01-30T00:02:00.108Z,-0.92
2019-01-30T00:05:02.255Z,-0.98
2019-01-30T00:08:04.418Z,-1.02
2019-01-30T00:11:06.416Z,-1.08
2019-01-30T00:14:08.426Z,-1.15
2019-01-30T00:17:10.341Z,-1.14
2019-01-30T00:20:12.546Z,-1.21
2019-01-30T00:23:14.507Z,-1.19
2019-01-30T00:26:16.587Z,-1.17
2019-01-30T00:29:18.527Z,-1.16
2019-01-30T00:32:20.459Z,-1.14
2019-01-30T00:35:23.434Z,-1.09
2019-01-30T00:38:26.234Z,-1.05
2019-01-30T00:41:28.185Z,-1.04
2019-01-30T00:44:30.153Z,-0.97
2019-01-30T00:47:32.110Z,-0.97
2019-01-30T00:50:34.303Z,-0.93
2019-01-30T00:53:36.152Z,-0.92
2019-01-30T00:56:39.254Z,-0.92
2019-01-30T00:59:41.230Z,-0.91
2019-01-30T01:02:43.300Z,-0.97
2019-01-30T01:05:45.266Z,-0.98
2019-01-30T01:08:47.221Z,-1.13
2019-01-30T01:11:49.227Z,-1.17
2019-01-30T01:14:51.147Z,-1.23
2019-01-30T01:17:53.183Z,-1.33
2019-01-30T01:20:55.223Z,-1.42
2019-01-30T01:23:57.215Z,-1.54
2019-01-30T01:26:59.528Z,-1.53
2019-01-30T01:30:01.552Z,-1.56
2019-01-30T01:33:03.479Z,-1.61
2019-01-30T01:36:05.384Z,-1.68
2019-01-30T01:39:07.354Z,-1.71
2019-01-30T01:42:10.253Z,-1.74
2019-01-30T01:45:15.503Z,-1.74
2019-01-30T01:48:17.425Z,-1.74
2019-01-30T01:51:19.788Z,-1.72
2019-01-30T01:54:22.578Z,-1.70
2019-01-30T01:57:24.670Z,-1.67
2019-01-30T02:00:35.322Z,-1.67
2019-01-30T02:03:30.555Z,-1.70
2019-01-30T02:06:32.610Z,-1.70
2019-01-30T02:09:34.623Z,-1.70
2019-01-30T02:12:36.514Z,-1.68
2019-01-30T02:15:38.507Z,-1.68
2019-01-30T02:18:40.427Z,-1.72
2019-01-30T02:21:42.387Z,-1.76
2019-01-30T02:24:44.319Z,-1.79
2019-01-30T02:27:46.301Z,-1.83
2019-01-30T02:30:48.208Z,-1.86
2019-01-30T02:33:50.143Z,-1.89
2019-01-30T02:36:57.913Z,-1.92
2019-01-30T02:39:59.908Z,-1.94
2019-01-30T02:43:01.865Z,-1.99
2019-01-30T02:46:03.830Z,-2.00
2019-01-30T02:49:05.762Z,-2.09
2019-01-30T02:52:07.718Z,-2.12
2019-01-30T02:55:12.351Z,-2.14
2019-01-30T02:58:14.912Z,-2.17
2019-01-30T03:01:16.871Z,-2.18
2019-01-30T03:04:19.951Z,-2.17
2019-01-30T03:07:21.864Z,-2.16
2019-01-30T03:10:23.893Z,-2.16
2019-01-30T03:13:26.065Z,-2.19
2019-01-30T03:16:27.981Z,-2.19
2019-01-30T03:19:29.903Z,-2.18
2019-01-30T03:22:31.815Z,-2.18
2019-01-30T03:25:33.756Z,-2.18
2019-01-30T03:28:35.839Z,-2.20
2019-01-30T03:31:37.871Z,-2.19
2019-01-30T03:34:39.916Z,-2.18
2019-01-30T03:37:41.855Z,-2.16
2019-01-30T03:40:44.183Z,-2.21
2019-01-30T03:43:46.108Z,-2.25
2019-01-30T03:46:48.071Z,-2.30
2019-01-30T03:49:49.959Z,-2.30
2019-01-30T03:52:51.915Z,-2.31
2019-01-30T03:55:53.899Z,-2.34
2019-01-30T03:58:55.948Z,-2.39
2019-01-30T04:01:57.857Z,-2.43
2019-01-30T04:04:59.831Z,-2.45
2019-01-30T04:08:01.794Z,-2.45
2019-01-30T04:11:03.911Z,-2.53
2019-01-30T04:14:05.835Z,-2.53
2019-01-30T04:17:08.292Z,-2.54
2019-01-30T04:20:13.633Z,-2.58
2019-01-30T04:23:17.440Z,-2.58
2019-01-30T04:26:21.195Z,-2.62
2019-01-30T04:29:23.196Z,-2.63
2019-01-30T04:32:26.299Z,-2.63
2019-01-30T04:35:28.599Z,-2.68
2019-01-30T04:38:30.591Z,-2.70
2019-01-30T04:41:32.553Z,-2.66
2019-01-30T04:44:34.499Z,-2.71
2019-01-30T04:47:36.461Z,-2.71
2019-01-30T04:50:38.421Z,-2.74
2019-01-30T04:53:40.863Z,-2.75
2019-01-30T04:56:42.794Z,-2.76
2019-01-30T04:59:44.916Z,-2.77
2019-01-30T05:02:49.080Z,-2.76
2019-01-30T05:05:51.030Z,-2.76
2019-01-30T05:08:55.884Z,-2.82
2019-01-30T05:11:57.941Z,-2.77
2019-01-30T05:14:59.881Z,-2.69
2019-01-30T05:18:01.813Z,-2.70
2019-01-30T05:21:03.773Z,-2.76
2019-01-30T05:24:05.729Z,-2.73
2019-01-30T05:27:07.676Z,-2.72
2019-01-30T05:30:19.514Z,-2.72
2019-01-30T05:33:21.458Z,-2.66
2019-01-30T05:36:23.399Z,-2.67
2019-01-30T05:39:25.425Z,-2.72
2019-01-30T05:42:27.386Z,-2.69
2019-01-30T05:45:29.426Z,-2.71
2019-01-30T05:48:31.402Z,-2.70
2019-01-30T05:51:33.335Z,-2.69
2019-01-30T05:54:35.308Z,-2.67
2019-01-30T05:57:37.266Z,-2.66
2019-01-30T06:00:41.246Z,-2.69
2019-01-30T06:03:44.634Z,-2.65
2019-01-30T06:06:46.599Z,-2.68
2019-01-30T06:09:48.539Z,-2.63
2019-01-30T06:12:50.510Z,-2.65
2019-01-30T06:15:52.553Z,-2.57
2019-01-30T06:18:54.554Z,-2.53
2019-01-30T06:21:56.510Z,-2.49
2019-01-30T06:24:58.521Z,-2.46
2019-01-30T06:28:00.526Z,-2.49
2019-01-30T06:31:02.569Z,-2.51
2019-01-30T06:34:04.516Z,-2.43
2019-01-30T06:37:06.503Z,-2.43
2019-01-30T06:40:12.097Z,-2.46
2019-01-30T06:43:14.070Z,-2.47
2019-01-30T06:46:16.058Z,-2.47
2019-01-30T06:49:18.553Z,-2.40
2019-01-30T06:52:20.472Z,-2.36
2019-01-30T06:55:22.569Z,-2.02
2019-01-30T06:58:24.595Z,-1.32
2019-01-30T07:01:26.699Z,-0.59
2019-01-30T07:04:28.663Z,0.21
2019-01-30T07:07:30.635Z,0.95
2019-01-30T07:10:32.601Z,1.57
2019-01-30T07:13:34.595Z,2.31
2019-01-30T07:16:36.544Z,2.96
2019-01-30T07:19:38.464Z,3.65
2019-01-30T07:22:40.545Z,4.37
2019-01-30T07:25:42.555Z,5.22
2019-01-30T07:28:44.534Z,5.59
2019-01-30T07:31:46.585Z,6.30
2019-01-30T07:34:48.615Z,6.70
2019-01-30T07:37:50.542Z,7.26
2019-01-30T07:40:52.554Z,7.87
2019-01-30T07:43:54.482Z,8.44
2019-01-30T07:46:57.141Z,9.74
2019-01-30T07:49:59.520Z,10.50
2019-01-30T07:53:01.501Z,11.15
2019-01-30T07:56:03.613Z,11.45
2019-01-30T07:59:05.594Z,11.83
2019-01-30T08:02:07.727Z,12.57
2019-01-30T08:05:09.905Z,13.35
2019-01-30T08:08:12.855Z,13.92
2019-01-30T08:11:14.784Z,14.72
2019-01-30T08:14:16.705Z,15.60
2019-01-30T08:17:21.030Z,15.83
2019-01-30T08:20:23.404Z,16.08
2019-01-30T08:23:25.742Z,15.83
2019-01-30T08:26:28.063Z,16.50
2019-01-30T08:29:30.140Z,16.61
2019-01-30T08:32:32.643Z,15.09
2019-01-30T08:35:34.790Z,14.94
2019-01-30T08:38:40.866Z,13.56
2019-01-30T08:41:44.779Z,11.23
2019-01-30T08:44:48.069Z,10.03
2019-01-30T08:47:50.062Z,8.45
2019-01-30T08:50:52.076Z,9.41
2019-01-30T08:53:54.104Z,8.67
2019-01-30T08:56:57.160Z,6.95
2019-01-30T08:59:59.193Z,5.84
2019-01-30T09:03:01.307Z,4.89
2019-01-30T09:06:03.390Z,4.10
2019-01-30T09:09:07.638Z,3.80
2019-01-30T09:12:09.553Z,3.48
2019-01-30T09:15:14.429Z,3.10
2019-01-30T09:18:16.396Z,2.95
2019-01-30T09:21:18.316Z,2.81
2019-01-30T09:24:20.305Z,2.67
2019-01-30T09:27:24.254Z,2.50
2019-01-30T09:30:32.202Z,2.35
2019-01-30T09:33:34.164Z,2.46
2019-01-30T09:36:36.079Z,2.44
2019-01-30T09:39:37.994Z,2.43
2019-01-30T09:42:40.003Z,2.53
2019-01-30T09:45:41.925Z,2.49
2019-01-30T09:48:45.039Z,2.55
2019-01-30T09:51:47.134Z,2.59
2019-01-30T09:54:49.069Z,2.65
2019-01-30T09:57:51.214Z,2.68
2019-01-30T10:00:53.395Z,2.83
2019-01-30T10:03:55.559Z,3.07
2019-01-30T10:06:57.501Z,3.10
2019-01-30T10:09:59.526Z,3.06
2019-01-30T10:13:01.587Z,2.86
2019-01-30T10:16:03.646Z,3.00
2019-01-30T10:19:05.671Z,2.98
2019-01-30T10:22:07.596Z,3.10
2019-01-30T10:25:09.842Z,3.18
2019-01-30T10:28:16.752Z,3.10
2019-01-30T10:31:15.820Z,2.90
2019-01-30T10:34:17.819Z,2.95
2019-01-30T10:37:19.799Z,2.97
2019-01-30T10:40:21.731Z,2.89
2019-01-30T10:43:23.745Z,3.01
2019-01-30T10:46:25.760Z,3.09
2019-01-30T10:49:27.716Z,3.09
2019-01-30T10:52:29.630Z,3.08
2019-01-30T10:55:33.449Z,3.09
2019-01-30T10:58:35.384Z,3.02
2019-01-30T11:01:37.546Z,3.09
2019-01-30T11:04:39.563Z,3.15
2019-01-30T11:07:41.635Z,3.09
2019-01-30T11:10:43.555Z,2.98
2019-01-30T11:13:45.504Z,3.12
2019-01-30T11:16:47.477Z,3.07
2019-01-30T11:19:49.420Z,3.09
2019-01-30T11:22:53.518Z,3.06
2019-01-30T11:25:57.003Z,3.14
2019-01-30T11:28:59.070Z,3.26
2019-01-30T11:32:00.984Z,3.22
2019-01-30T11:35:04.942Z,3.36
2019-01-30T11:38:08.880Z,3.30
2019-01-30T11:41:11.073Z,3.38
2019-01-30T11:44:12.983Z,3.42
2019-01-30T11:47:15.000Z,3.50
2019-01-30T11:50:17.038Z,3.49
2019-01-30T11:53:19.206Z,3.58
2019-01-30T11:56:21.225Z,3.52
2019-01-30T11:59:23.145Z,3.63
2019-01-30T12:02:25.105Z,3.62
2019-01-30T12:05:27.319Z,3.63
2019-01-30T12:08:29.475Z,3.60
2019-01-30T12:11:31.636Z,3.64
2019-01-30T12:14:33.943Z,3.63
2019-01-30T12:17:36.035Z,3.65
2019-01-30T12:20:38.050Z,3.65
2019-01-30T12:23:40.170Z,3.68
2019-01-30T12:26:42.229Z,3.73
2019-01-30T12:29:44.190Z,3.82
2019-01-30T12:32:47.253Z,3.94
2019-01-30T12:35:49.242Z,4.00
2019-01-30T12:38:51.137Z,4.01
2019-01-30T12:41:53.082Z,4.04
2019-01-30T12:44:55.126Z,4.09
2019-01-30T12:47:57.833Z,4.14
2019-01-30T12:50:59.800Z,4.17
2019-01-30T12:54:01.763Z,3.99
2019-01-30T12:57:03.828Z,3.92
2019-01-30T13:00:21.600Z,3.90
2019-01-30T13:03:23.556Z,3.92
2019-01-30T13:06:25.603Z,3.85
2019-01-30T13:09:28.580Z,3.95
2019-01-30T13:12:30.798Z,3.99
2019-01-30T13:15:32.743Z,3.95
2019-01-30T13:18:34.776Z,3.92
2019-01-30T13:21:36.794Z,3.77
2019-01-30T13:24:38.753Z,3.73
2019-01-30T13:27:40.767Z,3.74
2019-01-30T13:30:43.777Z,3.72
2019-01-30T13:33:46.074Z,3.54
2019-01-30T13:36:48.025Z,3.44
2019-01-30T13:39:50.032Z,3.40
2019-01-30T13:42:51.945Z,3.40
2019-01-30T13:45:53.910Z,3.42
2019-01-30T13:48:55.914Z,3.45
2019-01-30T13:51:57.999Z,3.43
2019-01-30T13:54:59.928Z,3.33
2019-01-30T13:58:01.907Z,3.31
2019-01-30T14:01:04.061Z,3.40
2019-01-30T14:04:05.996Z,3.49
2019-01-30T14:07:08.134Z,3.62
2019-01-30T14:10:11.328Z,3.78
2019-01-30T14:13:13.316Z,3.73
2019-01-30T14:16:15.279Z,3.69
2019-01-30T14:19:17.339Z,3.62
2019-01-30T14:22:19.598Z,3.69
2019-01-30T14:25:21.686Z,3.67
2019-01-30T14:28:23.719Z,3.58
2019-01-30T14:31:25.690Z,3.52
2019-01-30T14:34:27.656Z,3.50
2019-01-30T14:37:29.646Z,3.52
2019-01-30T14:40:31.703Z,3.52
2019-01-30T14:43:33.762Z,3.49
2019-01-30T14:46:35.798Z,3.42
2019-01-30T14:49:37.881Z,3.43
2019-01-30T14:52:39.847Z,3.45
2019-01-30T14:55:41.878Z,3.43
2019-01-30T14:58:45.243Z,3.38
2019-01-30T15:01:48.254Z,3.29
2019-01-30T15:04:50.265Z,3.22
2019-01-30T15:07:52.473Z,3.16
2019-01-30T15:10:54.499Z,3.10
2019-01-30T15:13:56.506Z,3.04
2019-01-30T15:16:58.523Z,2.97
2019-01-30T15:20:00.664Z,2.90
2019-01-30T15:23:04.338Z,2.87
2019-01-30T15:26:06.276Z,2.85
2019-01-30T15:29:08.192Z,2.79
2019-01-30T15:32:10.245Z,2.72
2019-01-30T15:35:12.706Z,2.66
2019-01-30T15:38:14.721Z,2.59
2019-01-30T15:41:16.656Z,2.48
2019-01-30T15:44:18.655Z,2.44
2019-01-30T15:47:20.644Z,2.40
2019-01-30T15:50:34.762Z,2.34
2019-01-30T15:53:36.798Z,2.29
2019-01-30T15:56:38.918Z,2.20
2019-01-30T15:59:40.832Z,2.21
2019-01-30T16:02:44.437Z,2.20
2019-01-30T16:05:46.669Z,2.20
2019-01-30T16:08:49.376Z,2.20
2019-01-30T16:11:51.377Z,2.19
2019-01-30T16:14:53.339Z,2.15
2019-01-30T16:17:55.277Z,2.12
2019-01-30T16:20:57.452Z,2.11
2019-01-30T16:23:59.338Z,2.08
2019-01-30T16:27:01.238Z,2.07
2019-01-30T16:30:09.573Z,2.04
2019-01-30T16:33:17.208Z,2.03
2019-01-30T16:36:27.609Z,1.95
2019-01-30T16:39:31.240Z,1.89
2019-01-30T16:42:33.178Z,1.80
2019-01-30T16:45:35.209Z,1.77
2019-01-30T16:48:37.191Z,1.72
2019-01-30T16:51:39.237Z,1.68
2019-01-30T16:54:41.215Z,1.63
2019-01-30T16:57:43.641Z,1.57
2019-01-30T17:00:46.734Z,1.51
2019-01-30T17:03:48.833Z,1.45
2019-01-30T17:06:51.238Z,1.44
2019-01-30T17:09:53.327Z,1.42
2019-01-30T17:12:55.392Z,1.38
2019-01-30T17:15:57.598Z,1.40
2019-01-30T17:18:59.594Z,1.40
2019-01-30T17:22:01.555Z,1.38
2019-01-30T17:25:08.231Z,1.38
2019-01-30T17:28:10.163Z,1.32
2019-01-30T17:31:12.189Z,1.23
2019-01-30T17:34:14.156Z,1.24
2019-01-30T17:37:16.809Z,1.22
2019-01-30T17:40:27.523Z,1.15
2019-01-30T17:43:29.473Z,1.11
2019-01-30T17:46:31.382Z,1.07
2019-01-30T17:49:33.328Z,0.97
2019-01-30T17:52:35.310Z,0.89
2019-01-30T17:55:37.334Z,0.83
2019-01-30T17:58:39.367Z,0.76
2019-01-30T18:01:41.302Z,0.71
2019-01-30T18:04:48.151Z,0.68
2019-01-30T18:07:50.571Z,0.65
2019-01-30T18:10:52.550Z,0.60
2019-01-30T18:13:59.398Z,0.60
2019-01-30T18:17:02.823Z,0.64
2019-01-30T18:20:09.110Z,0.61
2019-01-30T18:23:11.233Z,0.59
2019-01-30T18:26:16.813Z,0.61
2019-01-30T18:29:18.817Z,0.57
2019-01-30T18:32:22.349Z,0.52
2019-01-30T18:35:24.648Z,0.45
2019-01-30T18:38:29.345Z,0.43
2019-01-30T18:41:31.924Z,0.37
2019-01-30T18:44:36.143Z,0.38
2019-01-30T18:47:38.340Z,0.33
2019-01-30T18:50:40.743Z,0.27
2019-01-30T18:53:44.150Z,0.28
2019-01-30T18:56:48.250Z,0.30
2019-01-30T18:59:50.636Z,0.30
2019-01-30T19:02:56.052Z,0.28
2019-01-30T19:05:57.967Z,0.27
2019-01-30T19:08:59.987Z,0.21
2019-01-30T19:12:02.300Z,0.21
2019-01-30T19:15:11.100Z,0.21
2019-01-30T19:18:13.223Z,0.15
2019-01-30T19:21:15.212Z,0.10
2019-01-30T19:24:19.887Z,0.03
2019-01-30T19:27:22.465Z,-0.03
2019-01-30T19:30:29.864Z,-0.08
2019-01-30T19:33:31.792Z,-0.08
2019-01-30T19:36:35.186Z,-0.11
2019-01-30T19:39:37.337Z,-0.11
2019-01-30T19:42:39.328Z,-0.13
2019-01-30T19:45:43.178Z,-0.24
2019-01-30T19:48:47.991Z,-0.30
2019-01-30T19:51:50.283Z,-0.36
2019-01-30T19:54:54.300Z,-0.44
2019-01-30T19:57:56.471Z,-0.53
2019-01-30T20:00:58.942Z,-0.55
2019-01-30T20:04:03.473Z,-0.53
2019-01-30T20:07:14.402Z,-0.57
2019-01-30T20:10:17.553Z,-0.57
2019-01-30T20:13:19.753Z,-0.60
2019-01-30T20:16:22.858Z,-0.67
2019-01-30T20:19:27.230Z,-0.66
2019-01-30T20:22:31.407Z,-0.77
2019-01-30T20:25:43.865Z,-0.83
2019-01-30T20:28:44.970Z,-0.91
2019-01-30T20:31:54.055Z,-0.91
2019-01-30T20:34:57.878Z,-0.98
2019-01-30T20:38:01.623Z,-1.01
2019-01-30T20:41:05.647Z,-1.04
2019-01-30T20:44:07.841Z,-1.06
2019-01-30T20:47:10.273Z,-1.08
2019-01-30T20:50:19.940Z,-1.14
2019-01-30T20:53:21.949Z,-1.14
2019-01-30T20:56:27.503Z,-1.17
2019-01-30T20:59:36.103Z,-1.15
2019-01-30T21:02:38.548Z,-1.18
2019-01-30T21:05:40.637Z,-1.14
2019-01-30T21:08:44.417Z,-1.16
2019-01-30T21:11:46.389Z,-1.18
2019-01-30T21:14:51.843Z,-1.12
2019-01-30T21:17:53.824Z,-1.09
2019-01-30T21:20:56.423Z,-1.16
2019-01-30T21:23:58.409Z,-1.21
2019-01-30T21:27:01.104Z,-1.23
2019-01-30T21:30:06.800Z,-1.29
2019-01-30T21:33:08.966Z,-1.27
2019-01-30T21:36:11.984Z,-1.30
2019-01-30T21:39:14.315Z,-1.29
2019-01-30T21:42:18.097Z,-1.33
2019-01-30T21:45:21.957Z,-1.36
2019-01-30T21:48:25.045Z,-1.46
2019-01-30T21:51:27.412Z,-1.46
2019-01-30T21:54:33.622Z,-1.46
2019-01-30T21:57:35.656Z,-1.48
2019-01-30T22:00:38.629Z,-1.62
2019-01-30T22:03:43.871Z,-1.66
2019-01-30T22:06:46.292Z,-1.66
2019-01-30T22:09:48.261Z,-1.68
2019-01-30T22:12:50.221Z,-1.71
2019-01-30T22:15:52.322Z,-1.70
2019-01-30T22:18:54.261Z,-1.69
2019-01-30T22:21:56.174Z,-1.76
2019-01-30T22:24:58.154Z,-1.89
2019-01-30T22:28:01.298Z,-1.92
2019-01-30T22:31:03.397Z,-1.89
2019-01-30T22:34:09.671Z,-1.85
2019-01-30T22:37:13.907Z,-1.86
2019-01-30T22:40:15.924Z,-1.92
2019-01-30T22:43:17.911Z,-1.95
2019-01-30T22:46:19.890Z,-2.01
2019-01-30T22:49:21.888Z,-2.01
2019-01-30T22:52:23.890Z,-2.02
2019-01-30T22:55:25.849Z,-2.00
2019-01-30T22:58:27.814Z,-1.97
2019-01-30T23:01:33.414Z,-1.93
2019-01-30T23:04:42.208Z,-1.99
2019-01-30T23:07:47.648Z,-2.17
2019-01-30T23:11:02.236Z,-2.32
2019-01-30T23:14:04.647Z,-2.38
2019-01-30T23:17:22.290Z,-2.41
2019-01-30T23:20:24.859Z,-2.44
2019-01-30T23:23:33.428Z,-2.55
2019-01-30T23:26:38.997Z,-2.61
2019-01-30T23:30:07.276Z,-2.70
2019-01-30T23:33:32.493Z,-2.73
2019-01-30T23:36:58.274Z,-2.74
2019-01-30T23:40:03.899Z,-2.74
2019-01-30T23:43:15.864Z,-2.75
2019-01-30T23:46:30.306Z,-2.69
2019-01-30T23:50:10.829Z,-2.56
2019-01-30T23:53:46.309Z,-2.44
2019-01-30T23:56:57.697Z,-2.46
